Time;durP1;ratioP1;P1;durP2;ratioP2;P2;SDS_P1;SDS_P2;PMS_P1;PMS_P2;Temp;Humidity;BMP_temperature;BMP_pressure;BME280_temperature;BME280_humidity;BME280_pressure;Samples;Min_cycle;Max_cycle;Signal;HPM_P1;HPM_P2
2023/05/12 00:01:15;;;;;;;25.42;15.10;;;;;;;17.84;51.22;93051.78;5041563;28;20033;-91
2023/05/12 00:03:40;;;;;;;25.92;15.45;;;;;;;17.84;51.33;93049.78;5053577;28;20124;-94
2023/05/12 00:06:07;;;;;;;22.92;14.70;;;;;;;17.79;51.64;93056.06;5042868;28;20098;-91
2023/05/12 00:08:38;;;;;;;21.27;15.13;;;;;;;17.81;51.54;93054.28;5042941;28;20377;-93
2023/05/12 00:11:05;;;;;;;25.48;16.13;;;;;;;17.79;51.48;93051.34;5053998;28;20067;-93
2023/05/12 00:13:30;;;;;;;24.77;14.35;;;;;;;17.84;51.62;93054.53;5043350;28;20129;-92
2023/05/12 00:15:57;;;;;;;24.25;14.68;;;;;;;17.84;51.45;93049.06;5041793;28;20036;-92
2023/05/12 00:18:23;;;;;;;22.00;15.00;;;;;;;17.81;51.30;93043.38;5035097;28;20124;-91
2023/05/12 00:20:48;;;;;;;23.48;14.38;;;;;;;17.79;51.25;93056.81;5043448;28;20058;-93
2023/05/12 00:23:13;;;;;;;21.50;15.20;;;;;;;17.83;51.13;93045.59;5059567;28;20037;-91
2023/05/12 00:25:39;;;;;;;24.95;15.27;;;;;;;17.85;51.63;93045.06;5039331;28;20561;-90
2023/05/12 00:28:04;;;;;;;19.02;14.25;;;;;;;17.85;51.25;93048.53;5041650;28;20029;-91
2023/05/12 00:30:30;;;;;;;24.45;14.63;;;;;;;17.81;51.19;93039.88;5042533;28;20031;-93
2023/05/12 00:32:55;;;;;;;22.42;14.82;;;;;;;17.83;51.21;93051.06;5057121;28;20045;-93
2023/05/12 00:35:23;;;;;;;22.13;13.73;;;;;;;17.77;51.45;93042.16;5055239;28;20514;-92
2023/05/12 00:37:48;;;;;;;23.05;13.77;;;;;;;17.83;51.17;93039.38;5050367;28;20040;-92
2023/05/12 00:40:14;;;;;;;19.35;13.73;;;;;;;17.78;51.17;93043.66;5041157;28;20098;-93
2023/05/12 00:42:39;;;;;;;19.92;13.10;;;;;;;17.79;51.61;93039.66;5054448;28;20586;-91
2023/05/12 00:45:06;;;;;;;22.17;13.15;;;;;;;17.82;51.19;93038.63;5042233;28;20033;-91
2023/05/12 00:47:32;;;;;;;22.02;14.43;;;;;;;17.83;51.19;93040.13;5041969;28;20071;-92
2023/05/12 00:49:58;;;;;;;22.33;14.35;;;;;;;17.80;51.48;93038.41;5036660;28;20028;-93
2023/05/12 00:52:23;;;;;;;20.00;12.77;;;;;;;17.81;51.30;93037.91;5041525;28;20044;-90
2023/05/12 00:54:49;;;;;;;20.23;12.43;;;;;;;17.82;51.39;93038.63;5058845;28;20033;-91
2023/05/12 00:57:15;;;;;;;17.77;12.07;;;;;;;17.83;51.34;93033.91;5051865;28;20041;-94
2023/05/12 00:59:40;;;;;;;20.55;13.25;;;;;;;17.84;51.15;93035.38;5025226;28;20044;-91
2023/05/12 01:02:06;;;;;;;17.55;12.57;;;;;;;17.81;51.55;93037.91;5057302;28;20037;-93
2023/05/12 01:04:31;;;;;;;21.17;13.25;;;;;;;17.84;51.45;93038.13;5070799;28;20037;-94
2023/05/12 01:06:59;;;;;;;20.40;12.48;;;;;;;17.79;51.62;93037.66;5025096;28;20047;-91
2023/05/12 01:09:25;;;;;;;19.30;12.88;;;;;;;17.76;51.62;93035.97;5037037;28;20552;-93
2023/05/12 01:11:51;;;;;;;19.00;12.55;;;;;;;17.76;51.47;93044.16;5060829;28;20043;-92
2023/05/12 01:14:17;;;;;;;18.30;11.88;;;;;;;17.80;51.41;93033.69;5022998;28;20033;-92
2023/05/12 01:16:47;;;;;;;19.40;11.77;;;;;;;17.78;51.57;93030.72;5039921;28;20043;-93
2023/05/12 01:19:44;;;;;;;19.58;12.13;;;;;;;17.75;51.31;93036.50;5033270;28;20033;-90
2023/05/12 01:22:11;;;;;;;20.35;12.23;;;;;;;17.82;51.22;93035.91;4976242;28;20043;-92
2023/05/12 01:24:42;;;;;;;19.52;11.77;;;;;;;17.77;51.12;93037.44;4962640;28;20058;-93
2023/05/12 01:27:07;;;;;;;;;;;;;;;17.75;51.50;93036.50;4964862;28;20034;-93
2023/05/12 01:29:41;;;;;;;15.73;10.73;;;;;;;17.73;51.57;93042.47;4977705;28;20437;-93
2023/05/12 01:32:06;;;;;;;16.40;11.55;;;;;;;17.76;51.14;93048.88;4977327;28;20062;-91
2023/05/12 01:34:32;;;;;;;17.40;11.60;;;;;;;17.76;51.65;93041.44;4969269;28;20039;-93
2023/05/12 01:36:58;;;;;;;22.90;12.43;;;;;;;17.75;51.71;93052.91;4960188;28;20038;-90
2023/05/12 01:39:23;;;;;;;18.70;12.00;;;;;;;17.75;51.76;93048.16;4969232;28;20043;-93
2023/05/12 01:41:49;;;;;;;16.33;12.32;;;;;;;17.75;51.24;93047.44;4961070;28;20054;-89
2023/05/12 01:44:14;;;;;;;18.73;12.10;;;;;;;17.69;51.42;93046.75;4975107;28;20042;-90
2023/05/12 01:46:39;;;;;;;19.50;11.55;;;;;;;17.71;51.42;93036.78;4928777;28;20043;-90
2023/05/12 01:49:05;;;;;;;15.20;9.93;;;;;;;17.74;51.34;93048.69;4941960;28;20082;-91
2023/05/12 01:51:32;;;;;;;24.33;11.27;;;;;;;17.76;51.37;93043.41;4951756;28;20046;-93
2023/05/12 01:53:58;;;;;;;15.63;11.30;;;;;;;17.73;51.06;93053.41;4957945;28;20039;-92
2023/05/12 01:56:23;;;;;;;17.17;10.70;;;;;;;17.72;51.61;93048.47;4937123;28;20054;-90
2023/05/12 01:58:49;;;;;;;17.92;11.65;;;;;;;17.69;51.67;93042.03;5034614;28;20033;-92
2023/05/12 02:01:15;;;;;;;17.55;10.68;;;;;;;17.74;51.38;93045.97;5038743;28;20026;-93
2023/05/12 02:03:40;;;;;;;19.25;11.55;;;;;;;17.71;51.55;93055.19;5055299;28;20076;-92
2023/05/12 02:06:05;;;;;;;18.20;10.95;;;;;;;17.77;51.24;93042.16;5042119;28;20037;-92
2023/05/12 02:08:31;;;;;;;15.38;10.73;;;;;;;17.75;51.45;93053.63;5041982;28;20458;-92
2023/05/12 02:11:06;;;;;;;14.27;10.43;;;;;;;17.71;51.18;93057.91;5052838;28;20561;-92
2023/05/12 02:13:31;;;;;;;15.68;11.40;;;;;;;17.72;51.39;93060.13;5044528;28;20119;-93
2023/05/12 02:16:00;;;;;;;15.27;10.43;;;;;;;17.66;51.44;93061.44;5057076;28;20061;-91
2023/05/12 02:18:25;;;;;;;13.38;8.85;;;;;;;17.66;51.54;93066.91;5053456;28;20087;-93
2023/05/12 02:20:51;;;;;;;14.05;10.40;;;;;;;17.69;51.18;93055.69;5024914;28;20037;-90
2023/05/12 02:23:16;;;;;;;15.73;9.70;;;;;;;17.69;51.27;93057.69;5037190;28;20044;-93
2023/05/12 02:25:42;;;;;;;15.30;9.70;;;;;;;17.65;50.85;93059.97;5031548;28;20044;-91
2023/05/12 02:28:10;;;;;;;12.80;9.63;;;;;;;17.70;51.01;93067.38;5057027;28;20041;-90
2023/05/12 02:30:37;;;;;;;18.15;10.30;;;;;;;17.69;51.28;93057.69;5057836;28;20037;-94
2023/05/12 02:33:04;;;;;;;16.80;9.75;;;;;;;17.69;51.49;93058.44;5052393;28;20044;-92
2023/05/12 02:35:30;;;;;;;12.30;9.82;;;;;;;17.69;51.15;93063.91;5040563;28;20626;-92
2023/05/12 02:38:02;;;;;;;15.07;10.20;;;;;;;17.66;51.40;93050.50;5057585;28;20053;-92
2023/05/12 02:40:28;;;;;;;15.52;9.75;;;;;;;17.71;51.06;93064.13;5034870;28;20498;-92
2023/05/12 02:42:53;;;;;;;14.32;9.70;;;;;;;17.61;51.22;93054.75;5040885;28;20047;-91
2023/05/12 02:45:19;;;;;;;12.90;9.25;;;;;;;17.66;51.34;93048.53;5056432;28;20037;-93
2023/05/12 02:47:44;;;;;;;12.18;8.73;;;;;;;17.66;50.96;93051.25;5053261;28;20037;-90
2023/05/12 02:50:10;;;;;;;13.68;9.43;;;;;;;17.64;51.48;93042.81;5041346;28;20399;-90
2023/05/12 02:52:35;;;;;;;15.30;9.38;;;;;;;17.63;50.88;93046.78;5037108;28;20037;-92
2023/05/12 02:55:00;;;;;;;12.27;9.20;;;;;;;17.67;51.03;93054.72;5018444;28;20040;-91
2023/05/12 02:57:31;;;;;;;15.02;9.30;;;;;;;17.66;51.30;93045.03;5044477;28;20033;-91
2023/05/12 02:59:57;;;;;;;11.90;8.98;;;;;;;17.66;51.12;93040.31;5069166;28;20092;-93
2023/05/12 03:02:22;;;;;;;13.20;8.85;;;;;;;17.63;50.98;93046.78;5038963;28;20160;-90
2023/05/12 03:04:48;;;;;;;12.27;8.77;;;;;;;17.64;51.06;93044.78;5061300;28;20040;-92
2023/05/12 03:07:13;;;;;;;13.07;9.52;;;;;;;17.61;51.09;93046.56;5027543;28;20044;-93
2023/05/12 03:09:38;;;;;;;11.93;8.23;;;;;;;17.61;51.43;93043.09;5037504;28;20052;-91
2023/05/12 03:12:04;;;;;;;13.43;8.70;;;;;;;17.62;50.69;93039.09;5061560;28;20037;-92
2023/05/12 03:14:30;;;;;;;12.75;8.57;;;;;;;17.64;50.78;93036.59;5040754;28;20053;-91
2023/05/12 03:16:56;;;;;;;11.80;8.82;;;;;;;17.65;50.86;93040.84;5054334;28;20033;-93
2023/05/12 03:19:21;;;;;;;11.07;8.38;;;;;;;17.62;51.57;93041.81;5027219;28;20052;-90
2023/05/12 03:21:46;;;;;;;14.18;8.50;;;;;;;17.66;51.08;93036.84;5061311;28;20036;-92
2023/05/12 03:24:12;;;;;;;15.35;8.55;;;;;;;17.62;51.16;93039.84;5055579;28;20060;-93
2023/05/12 03:26:38;;;;;;;13.00;8.90;;;;;;;17.64;51.12;93042.06;5063033;28;20040;-91
2023/05/12 03:29:03;;;;;;;10.18;7.95;;;;;;;17.63;50.85;93043.31;5060665;28;20032;-89
2023/05/12 03:31:28;;;;;;;13.43;8.30;;;;;;;17.63;51.00;93046.03;5036362;28;20041;-92
2023/05/12 03:33:54;;;;;;;13.32;7.97;;;;;;;17.65;51.34;93040.84;5044252;28;20380;-92
2023/05/12 03:36:19;;;;;;;10.18;8.02;;;;;;;17.65;51.19;93036.09;5043479;28;20037;-91
2023/05/12 03:38:45;;;;;;;11.25;7.75;;;;;;;17.67;51.06;93038.31;5037342;28;20044;-92
2023/05/12 03:41:10;;;;;;;12.43;7.82;;;;;;;17.64;51.00;93033.84;5058305;28;20369;-90
2023/05/12 03:43:35;;;;;;;11.20;7.63;;;;;;;17.66;51.26;93047.78;5042967;28;20029;-91
2023/05/12 03:46:01;;;;;;;10.18;7.40;;;;;;;17.66;51.36;93042.31;5040055;28;20041;-90
2023/05/12 03:48:26;;;;;;;10.85;7.38;;;;;;;17.69;51.03;93041.28;5063622;28;20041;-93
2023/05/12 03:50:52;;;;;;;10.63;7.65;;;;;;;17.62;50.94;93050.03;5030784;28;20077;-91
2023/05/12 03:53:17;;;;;;;10.65;7.10;;;;;;;17.68;50.86;93043.28;5058014;28;20044;-90
2023/05/12 03:55:42;;;;;;;10.13;7.28;;;;;;;17.63;51.19;93033.13;5062441;28;20041;-90
2023/05/12 03:58:08;;;;;;;11.32;7.35;;;;;;;17.65;50.88;93040.84;5093971;28;20025;-92
2023/05/12 04:00:33;;;;;;;10.20;7.03;;;;;;;17.67;50.89;93039.06;5039046;28;20479;-92
2023/05/12 04:02:59;;;;;;;9.05;7.47;;;;;;;17.62;51.03;93044.56;5042934;28;20040;-93
2023/05/12 04:05:24;;;;;;;9.02;6.97;;;;;;;17.63;51.35;93035.84;5024743;28;20044;-94
2023/05/12 04:07:50;;;;;;;11.60;7.68;;;;;;;17.65;51.07;93041.56;5036700;28;20037;-92
2023/05/12 04:10:15;;;;;;;9.82;7.43;;;;;;;17.64;50.98;93045.56;5059604;28;20561;-90
2023/05/12 04:12:40;;;;;;;11.00;8.43;;;;;;;17.63;51.03;93049.50;5059225;28;20458;-93
2023/05/12 04:15:08;;;;;;;9.13;7.43;;;;;;;17.59;50.91;93051.06;5054937;28;20072;-90
2023/05/12 04:17:34;;;;;;;10.82;6.85;;;;;;;17.62;51.13;93048.03;5059894;28;20033;-93
2023/05/12 04:20:08;;;;;;;9.90;7.35;;;;;;;17.60;50.82;93052.53;5040172;28;20049;-93
2023/05/12 04:22:33;;;;;;;11.55;7.63;;;;;;;17.57;51.31;93053.56;5048721;28;20036;-90
2023/05/12 04:24:58;;;;;;;8.30;6.47;;;;;;;17.63;50.88;93060.44;5059099;28;20056;-90
2023/05/12 04:27:24;;;;;;;10.65;7.55;;;;;;;17.59;50.99;93056.53;5059425;28;20037;-93
2023/05/12 04:29:50;;;;;;;10.32;6.97;;;;;;;17.60;51.37;93066.94;5055482;28;20037;-90
2023/05/12 04:32:15;;;;;;;9.10;6.80;;;;;;;17.62;51.21;93071.91;5059124;28;20033;-93
2023/05/12 04:34:41;;;;;;;10.52;7.13;;;;;;;17.62;50.76;93066.44;5024053;28;20037;-92
2023/05/12 04:37:07;;;;;;;9.48;6.55;;;;;;;17.67;50.88;93073.88;5023557;28;20029;-92
2023/05/12 04:39:33;;;;;;;9.27;6.38;;;;;;;17.60;51.16;93072.41;5060548;28;20044;-92
2023/05/12 04:42:01;;;;;;;11.55;6.75;;;;;;;17.63;50.88;93084.31;5042880;28;20058;-92
2023/05/12 04:44:27;;;;;;;10.27;6.32;;;;;;;17.63;51.09;93073.38;5026270;28;20117;-93
2023/05/12 04:46:55;;;;;;;8.32;6.20;;;;;;;17.62;51.03;93083.56;5056016;28;20064;-92
2023/05/12 04:49:22;;;;;;;9.13;5.85;;;;;;;17.59;51.51;93083.84;5059569;28;20044;-93
2023/05/12 04:51:55;;;;;;;11.30;5.85;;;;;;;17.64;51.18;93085.78;5044504;28;20049;-90
2023/05/12 04:54:21;;;;;;;8.98;6.35;;;;;;;17.61;51.50;93086.81;5058114;28;20029;-90
2023/05/12 04:56:46;;;;;;;9.27;5.97;;;;;;;17.62;51.08;93080.09;5062334;28;20468;-91
2023/05/12 04:59:14;;;;;;;8.30;5.88;;;;;;;17.57;51.27;93094.56;5077110;28;20083;-92
2023/05/12 05:01:41;;;;;;;8.82;5.75;;;;;;;17.58;51.28;93093.31;5073174;28;20045;-92
2023/05/12 05:04:07;;;;;;;8.50;5.55;;;;;;;17.57;51.34;93091.81;5044584;28;20036;-91
2023/05/12 05:06:32;;;;;;;9.88;5.97;;;;;;;17.59;51.47;93092.78;5044568;28;20051;-93
2023/05/12 05:08:59;;;;;;;6.68;5.30;;;;;;;17.68;51.32;93080.81;5038509;28;20044;-91
2023/05/12 05:11:25;;;;;;;7.07;5.07;;;;;;;17.57;50.97;93086.34;5060236;28;20044;-93
2023/05/12 05:13:53;;;;;;;7.07;5.10;;;;;;;17.62;51.52;93091.78;5021238;28;20052;-91
2023/05/12 05:16:19;;;;;;;7.68;5.82;;;;;;;17.58;51.08;93096.78;5057329;28;20062;-91
2023/05/12 05:18:46;;;;;;;6.18;4.95;;;;;;;17.55;50.98;93097.06;5060904;28;20033;-92
2023/05/12 05:21:13;;;;;;;5.80;3.47;;;;;;;17.50;50.77;93101.34;5059540;28;20048;-90
2023/05/12 05:23:40;;;;;;;4.70;3.67;;;;;;;17.49;50.87;93097.13;5036507;28;20099;-92
2023/05/12 05:26:09;;;;;;;5.68;3.90;;;;;;;17.48;50.81;93098.38;5026439;28;20037;-92
2023/05/12 05:28:35;;;;;;;5.68;3.95;;;;;;;17.52;50.94;93090.66;5061195;28;20040;-93
2023/05/12 05:31:00;;;;;;;5.07;4.20;;;;;;;17.55;51.19;93094.31;5027857;28;20049;-93
2023/05/12 05:33:26;;;;;;;6.50;4.78;;;;;;;17.53;51.03;93085.91;5060372;28;20044;-91
2023/05/12 05:35:51;;;;;;;4.55;3.88;;;;;;;17.53;50.92;93092.13;5061072;28;20029;-90
2023/05/12 05:38:17;;;;;;;6.03;4.32;;;;;;;17.54;50.81;93090.84;5031736;28;20029;-92
2023/05/12 05:40:43;;;;;;;5.18;4.40;;;;;;;17.53;50.88;93094.13;5043303;28;20041;-91
2023/05/12 05:43:08;;;;;;;4.40;4.00;;;;;;;17.54;50.71;93092.88;5043002;28;20083;-92
2023/05/12 05:45:37;;;;;;;5.05;3.92;;;;;;;17.60;50.95;93099.00;5039780;28;20397;-93
2023/05/12 05:48:03;;;;;;;7.00;3.88;;;;;;;17.65;51.08;93090.03;5061069;28;20059;-91
2023/05/12 05:50:29;;;;;;;7.57;4.43;;;;;;;17.62;50.66;93099.97;5044002;28;20059;-91
2023/05/12 05:53:01;;;;;;;5.30;3.97;;;;;;;17.61;50.74;93101.22;5040492;28;20029;-90
2023/05/12 05:55:35;;;;;;;10.00;4.15;;;;;;;17.59;51.04;93102.97;5060107;28;20052;-90
2023/05/12 05:58:00;;;;;;;177.00;41.80;;;;;;;17.56;51.19;93093.06;5079957;28;20032;-90
2023/05/12 06:00:26;;;;;;;149.48;37.38;;;;;;;17.59;51.33;93100.25;5080195;28;20037;-92
2023/05/12 06:02:51;;;;;;;154.95;39.20;;;;;;;17.58;51.25;93101.50;5075556;28;20030;-89
2023/05/12 06:05:17;;;;;;;35.38;10.20;;;;;;;17.67;50.85;93095.72;5039367;28;20421;-90
2023/05/12 06:07:43;;;;;;;14.75;6.25;;;;;;;17.61;51.27;93098.50;5036512;28;20056;-90
2023/05/12 06:10:08;;;;;;;13.07;6.93;;;;;;;17.62;50.82;93102.69;5026477;28;20052;-89
2023/05/12 06:12:35;;;;;;;21.40;8.40;;;;;;;17.61;51.01;93109.41;5031299;28;20029;-91
2023/05/12 06:15:00;;;;;;;17.92;9.48;;;;;;;17.65;50.47;93109.91;5021509;28;20045;-91
2023/05/12 06:17:26;;;;;;;27.33;14.45;;;;;;;17.63;50.92;93112.38;5046481;28;20044;-91
2023/05/12 06:19:53;;;;;;;46.80;24.67;;;;;;;17.59;51.07;93111.91;5045783;28;20041;-91
2023/05/12 06:22:19;;;;;;;46.22;24.10;;;;;;;17.64;50.91;93113.13;5022219;28;20038;-91
2023/05/12 06:24:44;;;;;;;68.20;34.42;;;;;;;17.60;50.88;93109.94;5020214;28;20097;-92
2023/05/12 06:27:10;;;;;;;83.38;42.47;;;;;;;17.64;50.92;93124.06;5026228;28;20037;-89
2023/05/12 06:29:35;;;;;;;82.82;42.63;;;;;;;17.69;50.76;93124.03;5019310;28;20037;-92
2023/05/12 06:32:01;;;;;;;90.93;45.92;;;;;;;17.61;50.93;93120.34;5064712;28;20045;-91
2023/05/12 06:34:26;;;;;;;110.60;56.58;;;;;;;17.67;50.65;93114.88;5065045;28;20033;-90
2023/05/12 06:36:52;;;;;;;102.80;54.95;;;;;;;17.66;50.79;93116.13;5060475;28;20514;-92
2023/05/12 06:39:17;;;;;;;115.75;63.35;;;;;;;17.66;50.70;93111.38;5044447;28;20041;-92
2023/05/12 06:41:49;;;;;;;114.43;63.22;;;;;;;17.71;50.90;93123.53;5039445;28;20036;-93
2023/05/12 06:44:14;;;;;;;125.43;67.57;;;;;;;17.68;50.53;93122.56;5025198;28;20056;-91
2023/05/12 06:46:47;;;;;;;130.90;69.22;;;;;;;17.68;50.57;93122.56;5048831;28;20044;-92
2023/05/12 06:49:23;;;;;;;117.10;66.75;;;;;;;17.66;50.66;93127.78;5066495;28;20029;-91
2023/05/12 06:51:48;;;;;;;123.70;66.93;;;;;;;17.70;50.74;93125.53;5054942;28;20029;-91
2023/05/12 06:54:22;;;;;;;129.48;66.97;;;;;;;17.68;50.55;93119.81;5033772;28;20029;-93
2023/05/12 06:56:50;;;;;;;120.00;69.15;;;;;;;17.73;50.94;93123.75;5028711;28;20041;-92
2023/05/12 06:59:16;;;;;;;143.32;80.35;;;;;;;17.62;50.79;93121.84;5037005;28;20040;-89
2023/05/12 07:01:41;;;;;;;170.27;94.75;;;;;;;17.72;50.80;93120.28;5041471;28;20535;-89
2023/05/12 07:04:07;;;;;;;168.35;94.93;;;;;;;17.67;50.88;93128.53;5042081;28;20060;-92
2023/05/12 07:06:33;;;;;;;182.18;98.35;;;;;;;17.70;50.95;93124.78;5021136;28;20155;-93
2023/05/12 07:08:59;;;;;;;175.93;98.03;;;;;;;17.70;50.58;93130.25;5043038;28;20033;-92
2023/05/12 07:11:24;;;;;;;180.57;101.18;;;;;;;17.76;50.60;93128.19;5026581;28;20061;-92
2023/05/12 07:13:50;;;;;;;157.88;88.30;;;;;;;17.60;50.44;93129.06;5034721;28;20099;-94
2023/05/12 07:16:16;;;;;;;197.98;109.28;;;;;;;17.60;50.36;93137.25;5038399;28;20060;-91
2023/05/12 07:18:41;;;;;;;124.97;68.28;;;;;;;17.53;50.26;93135.84;5040446;28;20025;-91
2023/05/12 07:21:08;;;;;;;127.85;67.60;;;;;;;17.52;50.44;93128.16;5074011;28;20037;-91
2023/05/12 07:23:33;;;;;;;119.25;67.57;;;;;;;17.53;50.28;93129.66;5023864;28;20049;-93
2023/05/12 07:26:01;;;;;;;124.60;64.85;;;;;;;17.54;50.07;93134.56;5026177;28;20037;-91
2023/05/12 07:28:31;;;;;;;126.57;67.20;;;;;;;17.55;50.09;93140.78;5020680;28;20039;-92
2023/05/12 07:30:56;;;;;;;124.47;69.30;;;;;;;17.57;50.23;93138.28;5057797;28;20104;-92
2023/05/12 07:33:22;;;;;;;130.05;72.03;;;;;;;17.59;49.98;93128.31;5026971;28;20097;-89
2023/05/12 07:35:47;;;;;;;130.10;70.68;;;;;;;17.64;50.40;93135.00;5053359;28;20036;-92
2023/05/12 07:38:13;;;;;;;133.50;75.53;;;;;;;17.62;50.26;93134.75;5026567;28;20488;-93
2023/05/12 07:40:38;;;;;;;142.15;76.70;;;;;;;17.64;50.58;93126.78;5047361;28;20040;-89
2023/05/12 07:43:04;;;;;;;138.90;74.10;;;;;;;17.73;50.38;93134.69;5074023;28;20028;-89
2023/05/12 07:45:29;;;;;;;156.90;86.57;;;;;;;17.61;50.71;93138.75;5066921;28;20529;-92
2023/05/12 07:47:55;;;;;;;140.05;78.45;;;;;;;17.64;50.38;93143.97;5017530;28;20025;-91
2023/05/12 07:50:20;;;;;;;126.70;74.55;;;;;;;17.63;50.73;93139.72;5043343;28;20396;-92
2023/05/12 07:52:49;;;;;;;122.43;67.55;;;;;;;17.65;50.66;93147.44;5016556;28;20051;-90
2023/05/12 07:55:16;;;;;;;125.85;70.32;;;;;;;17.65;50.50;93144.69;5047554;28;20041;-90
2023/05/12 07:57:41;;;;;;;128.52;69.45;;;;;;;17.68;50.93;93138.97;5082755;28;20025;-90
2023/05/12 08:00:08;;;;;;;128.77;70.43;;;;;;;17.61;50.48;93144.94;5025578;28;20034;-90
2023/05/12 08:02:35;;;;;;;115.13;63.72;;;;;;;17.65;50.38;93147.44;5016518;28;20397;-92
2023/05/12 08:05:01;;;;;;;115.60;64.95;;;;;;;17.63;50.49;93147.19;5026775;28;20503;-90
2023/05/12 08:07:26;;;;;;;131.98;71.05;;;;;;;17.66;50.26;93143.44;5031878;28;20048;-90
2023/05/12 08:09:53;;;;;;;133.40;72.30;;;;;;;17.62;51.03;93145.69;5016058;28;20043;-89
2023/05/12 08:12:18;;;;;;;128.80;68.05;;;;;;;17.66;50.19;93152.41;5008490;28;20048;-89
2023/05/12 08:14:44;;;;;;;128.55;66.22;;;;;;;17.67;50.38;93147.66;5016653;28;20045;-89
2023/05/12 08:17:09;;;;;;;133.07;64.28;;;;;;;17.64;50.64;93156.88;5031362;28;20041;-89
2023/05/12 08:19:34;;;;;;;138.15;64.00;;;;;;;17.62;50.40;93151.16;5052581;28;20037;-91
2023/05/12 08:22:01;;;;;;;119.90;62.72;;;;;;;17.61;50.44;93160.59;4994515;28;20061;-89
2023/05/12 08:24:27;;;;;;;119.95;60.63;;;;;;;17.66;50.62;93160.59;4994866;28;20042;-90
2023/05/12 08:26:52;;;;;;;138.38;67.32;;;;;;;17.64;50.80;93157.63;4989631;28;20041;-90
2023/05/12 08:29:17;;;;;;;178.43;69.65;;;;;;;17.66;50.79;93168.06;4980553;28;20033;-89
2023/05/12 08:31:43;;;;;;;105.82;53.22;;;;;;;17.72;51.08;93166.00;4994033;28;20045;-91
2023/05/12 08:34:09;;;;;;;132.18;58.33;;;;;;;17.62;50.92;93160.09;4968791;28;20057;-91
2023/05/12 08:36:34;;;;;;;105.55;48.22;;;;;;;17.64;50.82;93163.09;4995180;28;20034;-90
2023/05/12 08:39:00;;;;;;;99.47;48.92;;;;;;;17.65;50.41;93163.84;4994078;28;20079;-89
2023/05/12 08:41:42;;;;;;;85.20;41.03;;;;;;;17.64;50.78;93167.78;4991517;28;20038;-90
2023/05/12 08:44:07;;;;;;;67.95;32.80;;;;;;;17.64;49.92;93170.53;4990914;28;20177;-90
2023/05/12 08:46:33;;;;;;;63.33;28.75;;;;;;;17.51;50.07;93164.94;4978328;28;20527;-89
2023/05/12 08:49:00;;;;;;;45.45;23.92;;;;;;;17.50;49.99;93161.47;4971114;28;20038;-90
2023/05/12 08:51:25;;;;;;;52.45;23.77;;;;;;;17.46;50.38;93158.28;4993258;28;20045;-89
2023/05/12 08:53:51;;;;;;;39.10;18.70;;;;;;;17.41;49.94;93164.53;5007161;28;20414;-90
2023/05/12 08:56:18;;;;;;;33.05;18.60;;;;;;;17.43;50.45;93168.22;5024713;28;20518;-90
2023/05/12 08:58:44;;;;;;;36.47;17.50;;;;;;;17.38;50.30;93171.00;5034593;28;20045;-90
2023/05/12 09:01:10;;;;;;;62.33;29.50;;;;;;;17.40;49.99;93177.44;5020178;28;20040;-89
2023/05/12 09:03:35;;;;;;;42.33;21.50;;;;;;;17.46;50.79;93177.41;5011350;28;20029;-89
2023/05/12 09:06:01;;;;;;;70.07;40.00;;;;;;;17.44;50.50;93171.69;4995986;28;20049;-89
2023/05/12 09:08:28;;;;;;;52.00;26.27;;;;;;;17.48;50.39;93172.16;4976136;28;20180;-90
2023/05/12 09:10:57;;;;;;;54.00;30.63;;;;;;;17.55;50.02;93173.59;4997618;28;20133;-90
2023/05/12 09:13:28;;;;;;;55.10;29.90;;;;;;;17.56;50.58;93173.06;4989189;28;20038;-89
2023/05/12 09:15:55;;;;;;;58.40;29.73;;;;;;;17.56;50.47;93170.34;4978196;28;20137;-89
2023/05/12 09:18:21;;;;;;;57.63;29.00;;;;;;;17.57;50.39;93177.28;4986009;28;20033;-90
2023/05/12 09:20:46;;;;;;;53.60;29.77;;;;;;;17.60;50.60;93175.53;4986264;28;20546;-89
2023/05/12 09:23:16;;;;;;;52.20;31.15;;;;;;;17.58;50.24;93173.31;4993655;28;20041;-89
2023/05/12 09:25:42;;;;;;;59.20;29.75;;;;;;;17.62;50.48;93173.03;4993504;28;20518;-90
2023/05/12 09:28:08;;;;;;;57.63;30.15;;;;;;;17.59;50.37;93182.25;5003104;28;20059;-89
2023/05/12 09:30:37;;;;;;;52.90;30.27;;;;;;;17.60;50.47;93181.75;4989081;28;20034;-89
2023/05/12 09:33:10;;;;;;;55.00;30.75;;;;;;;17.61;50.69;93185.94;4994605;28;20037;-89
2023/05/12 09:35:39;;;;;;;57.05;29.90;;;;;;;17.62;50.65;93192.91;4976312;28;20037;-89
2023/05/12 09:38:06;;;;;;;73.57;35.38;;;;;;;17.62;50.63;93187.44;5043655;28;20041;-89
2023/05/12 09:40:31;;;;;;;63.60;31.70;;;;;;;17.61;50.97;93179.75;5046439;28;20049;-90
2023/05/12 09:42:57;;;;;;;85.55;38.22;;;;;;;17.61;50.78;93177.00;5026161;28;20041;-89
2023/05/12 09:45:23;;;;;;;74.60;37.28;;;;;;;17.62;50.86;93186.69;5063341;28;20380;-89
2023/05/12 09:47:48;;;;;;;79.18;39.30;;;;;;;17.61;50.20;93190.69;5030203;28;20495;-89
2023/05/12 09:50:14;;;;;;;81.78;43.58;;;;;;;17.64;50.44;93189.66;5008559;28;20064;-89
2023/05/12 09:52:39;;;;;;;97.32;51.60;;;;;;;17.69;50.68;93186.91;5049881;28;20041;-89
2023/05/12 09:55:07;;;;;;;101.13;51.15;;;;;;;17.64;50.28;93189.66;5039394;28;20033;-89
2023/05/12 09:57:39;;;;;;;100.75;54.83;;;;;;;17.63;50.35;93191.66;5039113;28;20051;-90
2023/05/12 10:00:07;;;;;;;111.53;55.10;;;;;;;17.64;49.96;93195.13;5029783;28;20033;-88
2023/05/12 10:02:33;;;;;;;107.63;57.63;;;;;;;17.71;50.47;93184.41;5004596;28;20061;-89
2023/05/12 10:05:02;;;;;;;102.90;58.15;;;;;;;17.74;50.37;93185.38;4985797;28;20204;-89
2023/05/12 10:07:27;;;;;;;118.82;57.90;;;;;;;17.71;50.68;93184.41;4959776;28;20041;-89
2023/05/12 10:09:53;;;;;;;114.32;61.28;;;;;;;17.71;50.66;93180.94;4977430;28;20091;-89
2023/05/12 10:12:19;;;;;;;118.05;60.17;;;;;;;17.63;50.38;93188.91;4971999;28;20049;-89
2023/05/12 10:14:44;;;;;;;138.10;69.65;;;;;;;17.68;50.71;93193.63;4995715;28;20041;-89
2023/05/12 10:17:11;;;;;;;115.60;60.30;;;;;;;17.68;50.63;93185.44;4993320;28;20119;-89
2023/05/12 10:19:37;;;;;;;127.88;67.75;;;;;;;17.65;50.41;93180.97;4974123;28;20497;-89
2023/05/12 10:22:03;;;;;;;123.93;68.20;;;;;;;17.66;50.67;93190.66;4976119;28;20037;-89
2023/05/12 10:24:28;;;;;;;133.65;77.03;;;;;;;17.69;50.87;93183.44;4997510;28;20124;-89
2023/05/12 10:26:58;;;;;;;140.82;74.57;;;;;;;17.67;50.76;93186.69;4975664;28;20076;-89
2023/05/12 10:29:31;;;;;;;160.85;87.78;;;;;;;17.69;50.61;93186.91;4977163;28;20052;-89
2023/05/12 10:31:57;;;;;;;167.40;89.15;;;;;;;17.73;50.26;93179.16;4971608;28;20049;-89
2023/05/12 10:34:22;;;;;;;167.27;94.35;;;;;;;17.70;50.44;93193.13;4990359;28;20045;-89
2023/05/12 10:36:51;;;;;;;151.88;79.60;;;;;;;17.71;50.39;93189.88;4966804;28;20037;-90
2023/05/12 10:39:16;;;;;;;161.57;88.18;;;;;;;17.68;50.17;93199.09;4984624;28;20475;-90
2023/05/12 10:41:42;;;;;;;154.40;87.53;;;;;;;17.70;50.34;93193.13;5040863;28;20083;-89
2023/05/12 10:44:09;;;;;;;169.20;95.63;;;;;;;17.74;50.29;93196.31;5049295;28;20033;-89
2023/05/12 10:46:34;;;;;;;215.63;118.03;;;;;;;17.69;50.31;93205.31;5029971;28;20081;-88
2023/05/12 10:49:06;;;;;;;197.20;106.00;;;;;;;17.74;50.28;93194.31;5025083;28;20064;-90
2023/05/12 10:51:33;;;;;;;206.13;115.32;;;;;;;17.69;50.59;93211.50;5013185;28;20042;-89
2023/05/12 10:54:02;;;;;;;227.10;132.95;;;;;;;17.72;50.32;93202.28;4999770;28;20037;-90
2023/05/12 10:56:36;;;;;;;249.15;136.30;;;;;;;17.69;50.18;93206.06;5007836;28;20522;-89
2023/05/12 10:59:06;;;;;;;248.63;144.90;;;;;;;17.69;50.67;93199.84;5040192;28;20052;-90
2023/05/12 11:01:31;;;;;;;272.40;153.25;;;;;;;17.67;49.97;93202.34;5049245;28;20049;-89
2023/05/12 11:04:08;;;;;;;256.75;147.23;;;;;;;17.72;50.49;93202.28;5029351;28;20033;-89
2023/05/12 11:06:33;;;;;;;307.90;171.63;;;;;;;17.71;50.60;93209.00;5032515;28;20041;-89
2023/05/12 11:08:58;;;;;;;293.60;163.90;;;;;;;17.72;50.39;93202.28;5013598;28;20091;-89
2023/05/12 11:11:24;;;;;;;323.95;183.90;;;;;;;17.75;50.70;93206.00;5024399;28;20041;-90
2023/05/12 11:13:49;;;;;;;283.52;163.90;;;;;;;17.72;50.24;93207.03;5016743;28;20048;-90
2023/05/12 11:16:15;;;;;;;273.25;154.02;;;;;;;17.72;50.26;93210.50;5031125;28;20413;-90